Hagatna, Guam
Current Conditions -  °F | °C
As of 6:54 PM on Monday 24 Nov 2014 (Local Time) from PGUM Reporting Station
Few Clouds Few Clouds  
Wind Chill: 83°   Ceiling: Unl
Heat Index: 90°   Visibility: 10mi
Dew Point: 75°   Wind: 7mph
Humidity: 77%   Direction: 70°ENE
Pressure: 29.86"   Gusts: NA
Location:  13.48°N, 144.8°E
Report Text: PGUM 240854Z 07006KT 10SM FEW020 28/24 A2986 RMK AO2 SLP104 T02830239 53011
Loading
Personal Weather Stations






























Interactive Weather Map New forecast layout! Learn more

10-Day Weather Forecast

Advertisements
Track Severe Weather on mobile